Marriott-Slaterville City, Utah
Current Conditions -  °F | °C
As of 4:53 PM on Friday 19 Dec 2014 (Local Time) from KOGD Reporting Station
Overcast Overcast  
Wind Chill: 37°   Ceiling: 7500
Heat Index: 43°   Visibility: 10mi
Dew Point: 27°   Wind: 10mph
Humidity: 53%   Direction: 170°S
Pressure: 30.09"   Gusts: NA
Location:  41.2701°N, 112.135°W
Report Text: KOGD 192353Z AUTO 17009KT 10SM BKN075 OVC095 06/M03 A3009 RMK AO2 SLP187 T00611028 10083 20044 56008 TSNO
Loading
Personal Weather Stations






























Interactive Weather Map New forecast layout! Learn more

10-Day Weather Forecast

Advertisements
Track Severe Weather on mobile